createdAt,value
2023-03-27T00:02:24.191Z,95317.59
2023-03-27T00:05:22.033Z,95329.56
2023-03-27T00:08:18.847Z,95333.25
2023-03-27T00:11:16.930Z,95341.97
2023-03-27T00:14:14.060Z,95356.22
2023-03-27T00:17:11.062Z,95343.28
2023-03-27T00:20:08.402Z,95343.78
2023-03-27T00:23:06.304Z,95339.72
2023-03-27T00:26:03.148Z,95342.47
2023-03-27T00:28:59.950Z,95345.22
2023-03-27T00:31:56.775Z,95346.84
2023-03-27T00:34:53.878Z,95346.03
2023-03-27T00:37:51.086Z,95350.84
2023-03-27T00:40:50.809Z,95355.56
2023-03-27T00:43:50.067Z,95372.78
2023-03-27T00:46:47.144Z,95367.91
2023-03-27T00:49:45.366Z,95368.97
2023-03-27T00:52:44.575Z,95374.09
2023-03-27T00:55:47.186Z,95374.88
2023-03-27T00:58:49.851Z,95378.25
2023-03-27T01:01:47.449Z,95387.53
2023-03-27T01:04:46.102Z,95401.44
2023-03-27T01:08:00.489Z,95396.56
2023-03-27T01:11:47.539Z,95403.75
2023-03-27T01:14:56.655Z,95400.41
2023-03-27T01:18:09.914Z,95420.03
2023-03-27T01:21:52.811Z,95426.69
2023-03-27T01:25:20.507Z,95430.53
2023-03-27T01:28:27.038Z,95431.94
2023-03-27T01:32:17.828Z,95442.88
2023-03-27T01:35:37.049Z,95442.25
2023-03-27T01:39:16.869Z,95439.63
2023-03-27T01:42:21.552Z,95432.84
2023-03-27T01:45:21.120Z,95443.91
2023-03-27T01:48:34.712Z,95444.81
2023-03-27T01:51:38.008Z,95450.38
2023-03-27T01:54:41.996Z,95457.94
2023-03-27T01:57:52.165Z,95470.84
2023-03-27T02:00:55.401Z,95466.66
2023-03-27T02:03:57.557Z,95485.91
2023-03-27T02:07:01.688Z,95487.31
2023-03-27T02:10:04.823Z,95504.91
2023-03-27T02:13:18.363Z,95506.41
2023-03-27T02:16:21.808Z,95518.34
2023-03-27T02:19:36.038Z,95510.91
2023-03-27T02:22:37.503Z,95515.91
2023-03-27T02:25:44.539Z,95534.47
2023-03-27T02:29:27.586Z,95549.56
2023-03-27T02:32:47.474Z,95547.88
2023-03-27T02:35:59.400Z,95559.38
2023-03-27T02:39:12.614Z,95565.81
2023-03-27T02:42:20.881Z,95572.69
2023-03-27T02:45:59.868Z,95597.19
2023-03-27T02:49:02.665Z,95586.56
2023-03-27T02:52:20.320Z,95580.22
2023-03-27T02:55:23.612Z,95597.81
2023-03-27T02:58:36.608Z,95605.06
2023-03-27T03:01:34.661Z,95612.78
2023-03-27T03:04:41.859Z,95622.72
2023-03-27T03:07:40.201Z,95636.06
2023-03-27T03:10:44.064Z,95641.19
2023-03-27T03:13:41.456Z,95657.84
2023-03-27T03:16:38.348Z,95666.19
2023-03-27T03:19:35.991Z,95671.94
2023-03-27T03:22:32.801Z,95676.66
2023-03-27T03:25:31.296Z,95675.13
2023-03-27T03:28:28.113Z,95677.50
2023-03-27T03:31:24.988Z,95690.91
2023-03-27T03:34:22.585Z,95683.59
2023-03-27T03:37:20.408Z,95704.94
2023-03-27T03:40:19.563Z,95726.34
2023-03-27T03:43:16.365Z,95723.94
2023-03-27T03:46:13.252Z,95727.44
2023-03-27T03:49:10.537Z,95736.66
2023-03-27T03:52:07.460Z,95738.78
2023-03-27T03:55:05.967Z,95744.88
2023-03-27T03:58:03.168Z,95749.59
2023-03-27T04:01:00.128Z,95767.84
2023-03-27T04:03:56.956Z,95779.19
2023-03-27T04:06:58.163Z,95779.97
2023-03-27T04:09:54.998Z,95806.09
2023-03-27T04:12:52.164Z,95788.94
2023-03-27T04:15:49.278Z,95799.97
2023-03-27T04:18:46.342Z,95812.97
2023-03-27T04:21:43.366Z,95823.53
2023-03-27T04:24:44.577Z,95830.09
2023-03-27T04:27:43.254Z,95835.94
2023-03-27T04:30:44.020Z,95837.53
2023-03-27T04:33:46.733Z,95843.56
2023-03-27T04:36:43.790Z,95855.97
2023-03-27T04:39:43.388Z,95853.09
2023-03-27T04:42:44.877Z,95867.88
2023-03-27T04:45:48.106Z,95880.78
2023-03-27T04:48:44.939Z,95893.72
2023-03-27T04:51:42.375Z,95892.94
2023-03-27T04:54:39.482Z,95896.59
2023-03-27T04:57:37.358Z,95891.91
2023-03-27T05:00:34.364Z,95908.53
2023-03-27T05:03:32.449Z,95920.41
2023-03-27T05:06:29.307Z,95931.44
2023-03-27T05:09:26.629Z,95937.50
2023-03-27T05:12:23.457Z,95950.38
2023-03-27T05:15:21.603Z,95962.78
2023-03-27T05:18:18.409Z,95959.91
2023-03-27T05:21:15.241Z,95973.56
2023-03-27T05:24:12.520Z,95976.81
2023-03-27T05:27:10.238Z,95982.13
2023-03-27T05:30:08.116Z,95996.44
2023-03-27T05:33:05.012Z,95998.97
2023-03-27T05:36:03.156Z,96004.38
2023-03-27T05:39:00.027Z,96011.75
2023-03-27T05:41:56.852Z,96015.00
2023-03-27T05:44:53.629Z,96035.28
2023-03-27T05:47:56.650Z,96032.72
2023-03-27T05:50:53.567Z,96046.47
2023-03-27T05:53:50.586Z,96050.69
2023-03-27T05:56:47.446Z,96058.31
2023-03-27T05:59:44.297Z,96068.03
2023-03-27T06:02:45.661Z,96072.97
2023-03-27T06:05:43.648Z,96075.66
2023-03-27T06:08:40.995Z,96082.44
2023-03-27T06:11:38.091Z,96086.13
2023-03-27T06:14:35.091Z,96092.56
2023-03-27T06:17:31.959Z,96098.22
2023-03-27T06:20:29.352Z,96095.63
2023-03-27T06:23:27.018Z,96100.22
2023-03-27T06:26:23.816Z,96103.66
2023-03-27T06:29:21.191Z,96105.16
2023-03-27T06:32:18.060Z,96116.69
2023-03-27T06:35:15.919Z,96108.31
2023-03-27T06:38:15.556Z,96111.38
2023-03-27T06:41:12.372Z,96113.66
2023-03-27T06:44:09.210Z,96112.81
2023-03-27T06:47:06.221Z,96113.06
2023-03-27T06:50:03.101Z,96116.50
2023-03-27T06:53:01.071Z,96125.59
2023-03-27T06:55:58.442Z,96132.25
2023-03-27T06:58:55.588Z,96133.56
2023-03-27T07:01:52.590Z,96151.88
2023-03-27T07:05:01.569Z,96161.97
2023-03-27T07:08:08.355Z,96160.03
2023-03-27T07:11:15.993Z,96161.34
2023-03-27T07:14:12.893Z,96182.09
2023-03-27T07:17:09.714Z,96169.59
2023-03-27T07:20:07.671Z,96185.00
2023-03-27T07:23:04.616Z,96179.38
2023-03-27T07:26:01.830Z,96193.97
2023-03-27T07:29:00.700Z,96195.91
2023-03-27T07:31:59.708Z,96201.91
2023-03-27T07:34:59.706Z,96213.94
2023-03-27T07:37:57.626Z,96212.75
2023-03-27T07:40:54.448Z,96224.91
2023-03-27T07:43:51.256Z,96224.38
2023-03-27T07:46:51.941Z,96232.81
2023-03-27T07:49:48.679Z,96224.72
2023-03-27T07:52:46.245Z,96240.56
2023-03-27T07:55:43.161Z,96225.81
2023-03-27T07:58:40.413Z,96251.38
2023-03-27T08:01:37.345Z,96250.56
2023-03-27T08:04:34.225Z,96253.19
2023-03-27T08:07:32.204Z,96243.78
2023-03-27T08:10:29.133Z,96246.66
2023-03-27T08:13:26.684Z,96246.03
2023-03-27T08:16:27.767Z,96254.47
2023-03-27T08:19:28.111Z,96241.78
2023-03-27T08:22:25.502Z,96246.66
2023-03-27T08:25:22.909Z,96239.00
2023-03-27T08:28:20.254Z,96237.88
2023-03-27T08:31:18.416Z,96246.97
2023-03-27T08:34:15.839Z,96267.19
2023-03-27T08:37:13.265Z,96276.47
2023-03-27T08:40:26.098Z,96302.00
2023-03-27T08:43:44.572Z,96290.78
2023-03-27T08:46:47.270Z,96290.03
2023-03-27T08:50:15.400Z,96291.16
2023-03-27T08:53:54.432Z,96303.22
2023-03-27T08:56:51.632Z,96316.81
2023-03-27T08:59:50.703Z,96316.03
2023-03-27T09:02:59.038Z,96322.53
2023-03-27T09:06:14.605Z,96327.56
2023-03-27T09:09:38.669Z,96313.66
2023-03-27T09:12:59.259Z,96330.84
2023-03-27T09:16:04.190Z,96344.06
2023-03-27T09:19:18.890Z,96335.88
2023-03-27T09:22:40.632Z,96340.66
2023-03-27T09:25:46.624Z,96345.41
2023-03-27T09:28:51.486Z,96340.66
2023-03-27T09:31:56.011Z,96341.94
2023-03-27T09:34:52.805Z,96360.78
2023-03-27T09:38:03.917Z,96347.94
2023-03-27T09:41:11.640Z,96369.00
2023-03-27T09:44:28.177Z,96348.91
2023-03-27T09:47:40.677Z,96367.03
2023-03-27T09:50:47.272Z,96367.81
2023-03-27T09:53:58.676Z,96352.53
2023-03-27T09:57:10.925Z,96351.16
2023-03-27T10:00:28.256Z,96340.31
2023-03-27T10:03:25.629Z,96375.53
2023-03-27T10:06:31.519Z,96356.06
2023-03-27T10:09:30.938Z,96363.63
2023-03-27T10:12:27.751Z,96374.28
2023-03-27T10:15:41.111Z,96372.69
2023-03-27T10:18:45.719Z,96375.84
2023-03-27T10:21:44.039Z,96383.03
2023-03-27T10:24:44.407Z,96386.72
2023-03-27T10:27:43.765Z,96369.22
2023-03-27T10:30:40.949Z,96378.78
2023-03-27T10:33:41.296Z,96376.50
2023-03-27T10:36:39.495Z,96398.41
2023-03-27T10:39:36.485Z,96402.63
2023-03-27T10:42:33.678Z,96414.56
2023-03-27T10:45:32.315Z,96390.59
2023-03-27T10:48:48.291Z,96385.94
2023-03-27T10:52:01.605Z,96398.09
2023-03-27T10:55:41.471Z,96388.97
2023-03-27T10:59:04.317Z,96394.25
2023-03-27T11:02:16.729Z,96401.78
2023-03-27T11:05:21.246Z,96399.13
2023-03-27T11:08:31.985Z,96395.63
2023-03-27T11:11:38.567Z,96388.84
2023-03-27T11:14:59.692Z,96402.84
2023-03-27T11:18:17.876Z,96404.75
2023-03-27T11:21:40.106Z,96404.88
2023-03-27T11:24:56.191Z,96405.00
2023-03-27T11:28:03.416Z,96389.28
2023-03-27T11:31:32.280Z,96392.06
2023-03-27T11:34:44.358Z,96392.38
2023-03-27T11:37:53.561Z,96402.56
2023-03-27T11:40:51.346Z,96419.84
2023-03-27T11:43:48.207Z,96439.75
2023-03-27T11:47:41.382Z,96451.06
2023-03-27T11:50:54.554Z,96463.88
2023-03-27T11:54:14.354Z,96458.38
2023-03-27T11:57:24.199Z,96457.88
2023-03-27T12:00:34.494Z,96459.25
2023-03-27T12:04:03.010Z,96467.03
2023-03-27T12:07:47.992Z,96454.28
2023-03-27T12:10:48.051Z,96431.66
2023-03-27T12:14:01.625Z,96435.19
2023-03-27T12:17:21.604Z,96434.19
2023-03-27T12:20:53.781Z,96426.19
2023-03-27T12:24:35.368Z,96424.84
2023-03-27T12:28:05.251Z,96437.38
2023-03-27T12:31:25.925Z,96427.50
2023-03-27T12:34:50.244Z,96420.47
2023-03-27T12:37:58.187Z,96415.13
2023-03-27T12:41:11.000Z,96403.00
2023-03-27T12:44:14.504Z,96410.47
2023-03-27T12:47:14.404Z,96437.75
2023-03-27T12:50:35.342Z,96421.41
2023-03-27T12:53:34.988Z,96423.59
2023-03-27T12:56:36.086Z,96406.59
2023-03-27T12:59:48.325Z,96414.41
2023-03-27T13:03:15.785Z,96421.19
2023-03-27T13:06:22.518Z,96413.59
2023-03-27T13:09:44.970Z,96419.78
2023-03-27T13:12:53.289Z,96428.13
2023-03-27T13:16:11.737Z,96427.13
2023-03-27T13:19:22.906Z,96444.41
2023-03-27T13:22:49.629Z,96441.50
2023-03-27T13:26:44.696Z,96430.72
2023-03-27T13:29:42.450Z,96441.59
2023-03-27T13:32:41.106Z,96446.81
2023-03-27T13:36:04.359Z,96461.66
2023-03-27T13:39:05.804Z,96481.84
2023-03-27T13:42:09.423Z,96508.59
2023-03-27T13:45:23.176Z,96507.88
2023-03-27T13:49:04.824Z,96524.59
2023-03-27T13:52:29.052Z,96514.56
2023-03-27T13:55:45.595Z,96510.69
2023-03-27T13:59:07.838Z,96503.38
2023-03-27T14:02:32.273Z,96496.38
2023-03-27T14:06:25.999Z,96490.13
2023-03-27T14:09:44.856Z,96484.22
2023-03-27T14:13:22.608Z,96491.50
2023-03-27T14:16:52.091Z,96493.84
2023-03-27T14:20:13.177Z,96492.03
2023-03-27T14:23:26.421Z,96516.25
2023-03-27T14:26:25.663Z,96505.88
2023-03-27T14:29:22.459Z,96499.28
2023-03-27T14:32:19.570Z,96515.00
2023-03-27T14:35:44.113Z,96519.28
2023-03-27T14:38:41.563Z,96508.72
2023-03-27T14:41:58.589Z,96496.50
2023-03-27T14:45:21.942Z,96487.53
2023-03-27T14:48:37.110Z,96484.41
2023-03-27T14:51:42.026Z,96493.56
2023-03-27T14:54:52.320Z,96507.88
2023-03-27T14:57:54.245Z,96495.38
2023-03-27T15:01:00.016Z,96504.84
2023-03-27T15:03:57.660Z,96519.00
2023-03-27T15:07:30.573Z,96535.16
2023-03-27T15:10:31.562Z,96539.44
2023-03-27T15:13:36.268Z,96585.09
2023-03-27T15:16:35.799Z,96584.19
2023-03-27T15:19:57.320Z,96587.53
2023-03-27T15:23:29.334Z,96587.31
2023-03-27T15:26:31.578Z,96558.22
2023-03-27T15:29:42.900Z,96562.50
2023-03-27T15:32:52.208Z,96559.84
2023-03-27T15:35:56.112Z,96548.44
2023-03-27T15:38:55.966Z,96542.81
2023-03-27T15:42:12.301Z,96549.50
2023-03-27T15:45:10.681Z,96567.78
2023-03-27T15:48:16.490Z,96576.41
2023-03-27T15:51:29.860Z,96577.31
2023-03-27T15:54:35.560Z,96571.59
2023-03-27T15:57:32.471Z,96580.91
2023-03-27T16:00:30.284Z,96595.69
2023-03-27T16:03:30.371Z,96588.03
2023-03-27T16:06:38.592Z,96608.25
2023-03-27T16:09:55.979Z,96607.38
2023-03-27T16:13:00.706Z,96617.06
2023-03-27T16:16:05.775Z,96617.13
2023-03-27T16:19:14.133Z,96609.75
2023-03-27T16:22:11.159Z,96607.03
2023-03-27T16:25:11.819Z,96601.28
2023-03-27T16:28:11.019Z,96597.28
2023-03-27T16:31:14.429Z,96609.56
2023-03-27T16:34:22.983Z,96616.53
2023-03-27T16:37:24.623Z,96618.34
2023-03-27T16:40:21.599Z,96630.53
2023-03-27T16:43:19.460Z,96628.72
2023-03-27T16:46:27.761Z,96626.22
2023-03-27T16:49:24.637Z,96627.53
2023-03-27T16:52:21.813Z,96638.88
2023-03-27T16:55:19.507Z,96642.25
2023-03-27T16:58:16.541Z,96646.38
2023-03-27T17:01:13.871Z,96645.47
2023-03-27T17:04:11.159Z,96651.59
2023-03-27T17:07:07.990Z,96651.22
2023-03-27T17:10:05.920Z,96653.25
2023-03-27T17:13:02.823Z,96652.56
2023-03-27T17:16:00.429Z,96653.34
2023-03-27T17:18:57.747Z,96666.13
2023-03-27T17:21:54.577Z,96673.22
2023-03-27T17:24:56.797Z,96670.50
2023-03-27T17:27:54.267Z,96683.03
2023-03-27T17:31:03.137Z,96685.91
2023-03-27T17:34:01.372Z,96698.97
2023-03-27T17:36:58.177Z,96712.03
2023-03-27T17:39:55.290Z,96704.41
2023-03-27T17:42:52.255Z,96715.84
2023-03-27T17:45:50.064Z,96728.75
2023-03-27T17:48:47.075Z,96741.53
2023-03-27T17:51:44.027Z,96745.59
2023-03-27T17:54:41.503Z,96763.56
2023-03-27T17:57:38.579Z,96781.31
2023-03-27T18:00:37.250Z,96789.84
2023-03-27T18:03:34.160Z,96778.47
2023-03-27T18:06:31.180Z,96785.75
2023-03-27T18:09:28.059Z,96785.75
2023-03-27T18:12:24.912Z,96790.31
2023-03-27T18:15:21.800Z,96789.16
2023-03-27T18:18:18.682Z,96794.25
2023-03-27T18:21:16.466Z,96805.91
2023-03-27T18:24:13.434Z,96802.41
2023-03-27T18:27:10.271Z,96808.06
2023-03-27T18:30:12.232Z,96798.50
2023-03-27T18:33:11.235Z,96811.97
2023-03-27T18:36:11.988Z,96802.97
2023-03-27T18:39:09.000Z,96807.03
2023-03-27T18:42:06.139Z,96800.94
2023-03-27T18:45:04.295Z,96798.66
2023-03-27T18:48:01.171Z,96808.50
2023-03-27T18:51:04.298Z,96804.78
2023-03-27T18:54:01.087Z,96820.47
2023-03-27T18:56:58.000Z,96815.50
2023-03-27T18:59:55.514Z,96815.78
2023-03-27T19:02:52.412Z,96825.91
2023-03-27T19:05:51.816Z,96818.25
2023-03-27T19:08:48.691Z,96824.75
2023-03-27T19:11:45.555Z,96821.84
2023-03-27T19:14:42.464Z,96827.59
2023-03-27T19:17:39.425Z,96827.44
2023-03-27T19:20:36.622Z,96834.03
2023-03-27T19:23:33.433Z,96823.38
2023-03-27T19:26:33.856Z,96835.38
2023-03-27T19:29:31.621Z,96835.97
2023-03-27T19:32:28.559Z,96841.56
2023-03-27T19:35:26.492Z,96840.94
2023-03-27T19:38:23.302Z,96852.03
2023-03-27T19:41:20.253Z,96843.53
2023-03-27T19:44:19.765Z,96838.31
2023-03-27T19:47:16.708Z,96853.41
2023-03-27T19:50:14.582Z,96843.13
2023-03-27T19:53:11.440Z,96856.06
2023-03-27T19:56:08.369Z,96844.50
2023-03-27T19:59:05.634Z,96845.16
2023-03-27T20:02:02.663Z,96846.09
2023-03-27T20:04:59.557Z,96846.66
2023-03-27T20:07:56.391Z,96855.81
2023-03-27T20:10:53.216Z,96851.34
2023-03-27T20:13:56.656Z,96853.53
2023-03-27T20:16:54.242Z,96860.06
2023-03-27T20:19:51.050Z,96862.13
2023-03-27T20:22:56.855Z,96848.38
2023-03-27T20:25:55.822Z,96848.94
2023-03-27T20:28:52.954Z,96861.56
2023-03-27T20:31:50.175Z,96853.53
2023-03-27T20:34:48.866Z,96858.44
2023-03-27T20:37:46.980Z,96856.06
2023-03-27T20:40:52.868Z,96863.34
2023-03-27T20:43:50.908Z,96865.22
2023-03-27T20:46:50.955Z,96865.66
2023-03-27T20:49:48.317Z,96866.25
2023-03-27T20:52:45.121Z,96870.34
2023-03-27T20:55:53.196Z,96870.69
2023-03-27T20:58:54.110Z,96865.78
2023-03-27T21:01:50.999Z,96863.38
2023-03-27T21:04:48.108Z,96858.44
2023-03-27T21:07:51.150Z,96860.28
2023-03-27T21:10:54.124Z,96853.75
2023-03-27T21:13:50.947Z,96870.94
2023-03-27T21:16:48.050Z,96868.41
2023-03-27T21:19:44.901Z,96865.44
2023-03-27T21:22:41.766Z,96868.19
2023-03-27T21:25:38.638Z,96865.53
2023-03-27T21:28:35.929Z,96868.41
2023-03-27T21:31:33.315Z,96870.34
2023-03-27T21:34:30.531Z,96882.50
2023-03-27T21:37:27.357Z,96871.97
2023-03-27T21:40:24.156Z,96882.41
2023-03-27T21:43:23.731Z,96891.78
2023-03-27T21:46:20.943Z,96885.59
2023-03-27T21:49:17.816Z,96886.63
2023-03-27T21:52:14.642Z,96883.19
2023-03-27T21:55:11.488Z,96881.69
2023-03-27T21:58:08.828Z,96890.75
2023-03-27T22:01:06.127Z,96884.22
2023-03-27T22:04:03.138Z,96888.31
2023-03-27T22:07:00.413Z,96889.38
2023-03-27T22:09:57.219Z,96893.81
2023-03-27T22:12:54.030Z,96897.84
2023-03-27T22:15:50.954Z,96891.66
2023-03-27T22:18:47.805Z,96895.34
2023-03-27T22:21:44.624Z,96900.94
2023-03-27T22:24:41.433Z,96908.38
2023-03-27T22:27:39.512Z,96900.47
2023-03-27T22:30:36.349Z,96898.84
2023-03-27T22:33:33.232Z,96913.28
2023-03-27T22:36:31.460Z,96904.94
2023-03-27T22:39:28.774Z,96900.25
2023-03-27T22:42:28.741Z,96913.06
2023-03-27T22:45:25.665Z,96913.50
2023-03-27T22:48:22.769Z,96909.38
2023-03-27T22:51:19.572Z,96914.78
2023-03-27T22:54:18.465Z,96917.31
2023-03-27T22:57:15.396Z,96922.69
2023-03-27T23:00:12.992Z,96929.91
2023-03-27T23:03:09.924Z,96934.34
2023-03-27T23:06:07.582Z,96938.06
2023-03-27T23:09:04.551Z,96937.22
2023-03-27T23:12:01.357Z,96936.16
2023-03-27T23:14:58.166Z,96936.50
2023-03-27T23:17:55.495Z,96947.25
2023-03-27T23:21:02.188Z,96947.06
2023-03-27T23:23:58.998Z,96952.75
2023-03-27T23:26:55.879Z,96948.41
2023-03-27T23:29:52.742Z,96949.34
2023-03-27T23:32:49.687Z,96954.97
2023-03-27T23:35:46.969Z,96955.63
2023-03-27T23:38:44.109Z,96958.25
2023-03-27T23:41:41.574Z,96954.25
2023-03-27T23:44:38.370Z,96962.94
2023-03-27T23:47:35.619Z,96967.34
2023-03-27T23:50:32.892Z,96962.56
2023-03-27T23:53:30.254Z,96966.97
2023-03-27T23:56:27.131Z,96978.22
2023-03-27T23:59:23.953Z,96979.41
